sensor_id;sensor_type;location;lat;lon;timestamp;pressure;altitude;pressure_sealevel;temperature
37414;BMP280;23279;46.472;30.760;2023-04-03T00:01:06;76290.50;;;-146.33
37414;BMP280;23279;46.472;30.760;2023-04-03T00:03:32;76288.47;;;-146.33
37414;BMP280;23279;46.472;30.760;2023-04-03T00:05:58;76308.81;;;-146.33
37414;BMP280;23279;46.472;30.760;2023-04-03T00:08:23;76302.72;;;-146.33
37414;BMP280;23279;46.472;30.760;2023-04-03T00:10:49;76306.78;;;-146.33
37414;BMP280;23279;46.472;30.760;2023-04-03T00:13:16;76319.00;;;-146.33
37414;BMP280;23279;46.472;30.760;2023-04-03T00:15:41;76314.91;;;-146.33
37414;BMP280;23279;46.472;30.760;2023-04-03T00:18:07;76325.09;;;-146.33
37414;BMP280;23279;46.472;30.760;2023-04-03T00:20:33;76325.09;;;-146.33
37414;BMP280;23279;46.472;30.760;2023-04-03T00:23:00;76319.00;;;-146.33
37414;BMP280;23279;46.472;30.760;2023-04-03T00:25:25;76314.91;;;-146.33
37414;BMP280;23279;46.472;30.760;2023-04-03T00:27:51;76310.84;;;-146.33
37414;BMP280;23279;46.472;30.760;2023-04-03T00:30:18;76327.13;;;-146.33
37414;BMP280;23279;46.472;30.760;2023-04-03T00:32:44;76337.28;;;-146.33
37414;BMP280;23279;46.472;30.760;2023-04-03T00:35:10;76335.25;;;-146.33
37414;BMP280;23279;46.472;30.760;2023-04-03T00:37:36;76333.22;;;-146.33
37414;BMP280;23279;46.472;30.760;2023-04-03T00:40:04;76335.25;;;-146.33
37414;BMP280;23279;46.472;30.760;2023-04-03T00:42:30;76333.22;;;-146.33
37414;BMP280;23279;46.472;30.760;2023-04-03T00:47:21;76341.34;;;-146.33
37414;BMP280;23279;46.472;30.760;2023-04-03T00:49:47;76333.22;;;-146.33
37414;BMP280;23279;46.472;30.760;2023-04-03T00:52:16;76335.25;;;-146.33
37414;BMP280;23279;46.472;30.760;2023-04-03T00:54:42;76339.31;;;-146.33
37414;BMP280;23279;46.472;30.760;2023-04-03T00:57:09;76347.47;;;-146.33
37414;BMP280;23279;46.472;30.760;2023-04-03T00:59:40;76343.41;;;-146.33
37414;BMP280;23279;46.472;30.760;2023-04-03T01:02:07;76335.25;;;-146.33
37414;BMP280;23279;46.472;30.760;2023-04-03T01:04:43;76335.25;;;-146.33
37414;BMP280;23279;46.472;30.760;2023-04-03T01:07:30;76337.28;;;-146.33
37414;BMP280;23279;46.472;30.760;2023-04-03T01:09:57;76333.22;;;-146.33
37414;BMP280;23279;46.472;30.760;2023-04-03T01:12:36;76339.31;;;-146.33
37414;BMP280;23279;46.472;30.760;2023-04-03T01:15:22;76327.13;;;-146.33
37414;BMP280;23279;46.472;30.760;2023-04-03T01:17:50;76329.16;;;-146.33
37414;BMP280;23279;46.472;30.760;2023-04-03T01:25:45;76337.28;;;-146.33
37414;BMP280;23279;46.472;30.760;2023-04-03T01:28:24;76355.59;;;-146.33
37414;BMP280;23279;46.472;30.760;2023-04-03T01:33:52;76343.41;;;-146.33
37414;BMP280;23279;46.472;30.760;2023-04-03T01:36:24;76351.53;;;-146.33
37414;BMP280;23279;46.472;30.760;2023-04-03T01:38:51;76355.59;;;-146.33
37414;BMP280;23279;46.472;30.760;2023-04-03T01:41:17;76361.69;;;-146.33
37414;BMP280;23279;46.472;30.760;2023-04-03T01:43:43;76353.56;;;-146.33
37414;BMP280;23279;46.472;30.760;2023-04-03T01:46:09;76347.47;;;-146.33
37414;BMP280;23279;46.472;30.760;2023-04-03T01:48:34;76351.53;;;-146.33
37414;BMP280;23279;46.472;30.760;2023-04-03T01:51:00;76357.63;;;-146.33
37414;BMP280;23279;46.472;30.760;2023-04-03T01:53:25;76361.69;;;-146.33
37414;BMP280;23279;46.472;30.760;2023-04-03T01:55:51;76359.66;;;-146.33
37414;BMP280;23279;46.472;30.760;2023-04-03T01:58:16;76355.59;;;-146.33
37414;BMP280;23279;46.472;30.760;2023-04-03T02:00:42;76367.78;;;-146.33
37414;BMP280;23279;46.472;30.760;2023-04-03T02:03:07;76363.72;;;-146.33
37414;BMP280;23279;46.472;30.760;2023-04-03T02:05:33;76377.97;;;-146.33
37414;BMP280;23279;46.472;30.760;2023-04-03T02:07:58;76361.69;;;-146.33
37414;BMP280;23279;46.472;30.760;2023-04-03T02:10:24;76390.16;;;-146.33
37414;BMP280;23279;46.472;30.760;2023-04-03T02:12:49;76375.94;;;-146.33
37414;BMP280;23279;46.472;30.760;2023-04-03T02:15:16;76373.91;;;-146.33
37414;BMP280;23279;46.472;30.760;2023-04-03T02:17:41;76371.88;;;-146.33
37414;BMP280;23279;46.472;30.760;2023-04-03T02:20:07;76375.94;;;-146.33
37414;BMP280;23279;46.472;30.760;2023-04-03T02:22:33;76380.00;;;-146.33
37414;BMP280;23279;46.472;30.760;2023-04-03T02:24:58;76382.03;;;-146.33
37414;BMP280;23279;46.472;30.760;2023-04-03T02:27:24;76394.25;;;-146.33
37414;BMP280;23279;46.472;30.760;2023-04-03T02:29:49;76386.09;;;-146.33
37414;BMP280;23279;46.472;30.760;2023-04-03T02:32:15;76388.13;;;-146.33
37414;BMP280;23279;46.472;30.760;2023-04-03T02:34:40;76392.19;;;-146.33
37414;BMP280;23279;46.472;30.760;2023-04-03T02:37:06;76396.28;;;-146.33
37414;BMP280;23279;46.472;30.760;2023-04-03T02:39:31;76394.25;;;-146.33
37414;BMP280;23279;46.472;30.760;2023-04-03T02:41:57;76392.19;;;-146.33
37414;BMP280;23279;46.472;30.760;2023-04-03T02:44:22;76402.38;;;-146.33
37414;BMP280;23279;46.472;30.760;2023-04-03T02:46:49;76396.28;;;-146.33
37414;BMP280;23279;46.472;30.760;2023-04-03T02:49:14;76404.41;;;-146.33
37414;BMP280;23279;46.472;30.760;2023-04-03T02:51:40;76394.25;;;-146.33
37414;BMP280;23279;46.472;30.760;2023-04-03T02:54:06;76388.13;;;-146.33
37414;BMP280;23279;46.472;30.760;2023-04-03T02:56:32;76388.13;;;-146.33
37414;BMP280;23279;46.472;30.760;2023-04-03T02:58:57;76390.16;;;-146.33
37414;BMP280;23279;46.472;30.760;2023-04-03T03:01:23;76400.34;;;-146.33
37414;BMP280;23279;46.472;30.760;2023-04-03T03:03:48;76394.25;;;-146.33
37414;BMP280;23279;46.472;30.760;2023-04-03T03:06:15;76386.09;;;-146.33
37414;BMP280;23279;46.472;30.760;2023-04-03T03:08:41;76404.41;;;-146.33
37414;BMP280;23279;46.472;30.760;2023-04-03T03:11:07;76396.28;;;-146.33
37414;BMP280;23279;46.472;30.760;2023-04-03T03:13:33;76394.25;;;-146.33
37414;BMP280;23279;46.472;30.760;2023-04-03T03:15:59;76400.34;;;-146.33
37414;BMP280;23279;46.472;30.760;2023-04-03T03:18:25;76412.53;;;-146.33
37414;BMP280;23279;46.472;30.760;2023-04-03T03:20:55;76404.41;;;-146.33
37414;BMP280;23279;46.472;30.760;2023-04-03T03:23:22;76400.34;;;-146.33
37414;BMP280;23279;46.472;30.760;2023-04-03T03:25:48;76402.38;;;-146.33
37414;BMP280;23279;46.472;30.760;2023-04-03T03:28:14;76404.41;;;-146.33
37414;BMP280;23279;46.472;30.760;2023-04-03T03:30:39;76402.38;;;-146.33
37414;BMP280;23279;46.472;30.760;2023-04-03T03:33:05;76400.34;;;-146.33
37414;BMP280;23279;46.472;30.760;2023-04-03T03:35:31;76408.47;;;-146.33
37414;BMP280;23279;46.472;30.760;2023-04-03T03:37:56;76410.50;;;-146.33
37414;BMP280;23279;46.472;30.760;2023-04-03T03:40:21;76418.63;;;-146.33
37414;BMP280;23279;46.472;30.760;2023-04-03T03:42:47;76402.38;;;-146.33
37414;BMP280;23279;46.472;30.760;2023-04-03T03:45:12;76410.50;;;-146.33
37414;BMP280;23279;46.472;30.760;2023-04-03T03:47:38;76406.44;;;-146.33
37414;BMP280;23279;46.472;30.760;2023-04-03T03:50:04;76392.19;;;-146.33
37414;BMP280;23279;46.472;30.760;2023-04-03T03:52:29;76422.72;;;-146.33
37414;BMP280;23279;46.472;30.760;2023-04-03T03:54:55;76402.38;;;-146.33
37414;BMP280;23279;46.472;30.760;2023-04-03T03:57:21;76412.53;;;-146.33
37414;BMP280;23279;46.472;30.760;2023-04-03T03:59:47;76412.53;;;-146.33
37414;BMP280;23279;46.472;30.760;2023-04-03T04:02:13;76402.38;;;-146.33
37414;BMP280;23279;46.472;30.760;2023-04-03T04:04:39;76404.41;;;-146.33
37414;BMP280;23279;46.472;30.760;2023-04-03T04:07:04;76414.56;;;-146.33
37414;BMP280;23279;46.472;30.760;2023-04-03T04:09:30;76412.53;;;-146.33
37414;BMP280;23279;46.472;30.760;2023-04-03T04:11:55;76422.72;;;-146.33
37414;BMP280;23279;46.472;30.760;2023-04-03T04:14:21;76416.59;;;-146.33
37414;BMP280;23279;46.472;30.760;2023-04-03T04:16:47;76406.44;;;-146.33
37414;BMP280;23279;46.472;30.760;2023-04-03T04:19:13;76418.63;;;-146.33
37414;BMP280;23279;46.472;30.760;2023-04-03T04:21:38;76416.59;;;-146.33
37414;BMP280;23279;46.472;30.760;2023-04-03T04:24:05;76424.75;;;-146.33
37414;BMP280;23279;46.472;30.760;2023-04-03T04:26:30;76428.81;;;-146.33
37414;BMP280;23279;46.472;30.760;2023-04-03T04:28:56;76422.72;;;-146.33
37414;BMP280;23279;46.472;30.760;2023-04-03T04:31:21;76434.91;;;-146.33
37414;BMP280;23279;46.472;30.760;2023-04-03T04:33:46;76424.75;;;-146.33
37414;BMP280;23279;46.472;30.760;2023-04-03T04:36:12;76428.81;;;-146.33
37414;BMP280;23279;46.472;30.760;2023-04-03T04:38:37;76434.91;;;-146.33
37414;BMP280;23279;46.472;30.760;2023-04-03T04:41:03;76424.75;;;-146.33
37414;BMP280;23279;46.472;30.760;2023-04-03T04:43:29;76430.84;;;-146.33
37414;BMP280;23279;46.472;30.760;2023-04-03T04:46:09;76432.88;;;-146.33
37414;BMP280;23279;46.472;30.760;2023-04-03T04:48:37;76418.63;;;-146.33
37414;BMP280;23279;46.472;30.760;2023-04-03T04:51:03;76416.59;;;-146.33
37414;BMP280;23279;46.472;30.760;2023-04-03T04:53:28;76420.69;;;-146.33
37414;BMP280;23279;46.472;30.760;2023-04-03T04:55:54;76404.41;;;-146.33
37414;BMP280;23279;46.472;30.760;2023-04-03T04:58:19;76390.16;;;-146.33
37414;BMP280;23279;46.472;30.760;2023-04-03T05:00:45;76365.75;;;-146.33
37414;BMP280;23279;46.472;30.760;2023-04-03T05:03:11;76355.59;;;-146.33
37414;BMP280;23279;46.472;30.760;2023-04-03T05:05:36;76351.53;;;-146.33
37414;BMP280;23279;46.472;30.760;2023-04-03T05:08:03;76323.06;;;-146.33
37414;BMP280;23279;46.472;30.760;2023-04-03T05:10:28;76310.84;;;-146.33
37414;BMP280;23279;46.472;30.760;2023-04-03T05:12:54;76296.63;;;-146.33
37414;BMP280;23279;46.472;30.760;2023-04-03T05:15:19;76286.44;;;-146.33
37414;BMP280;23279;46.472;30.760;2023-04-03T05:17:45;76284.41;;;-146.33
37414;BMP280;23279;46.472;30.760;2023-04-03T05:20:11;76288.47;;;-146.33
37414;BMP280;23279;46.472;30.760;2023-04-03T05:22:36;76274.25;;;-146.33
37414;BMP280;23279;46.472;30.760;2023-04-03T05:25:02;76262.03;;;-146.33
37414;BMP280;23279;46.472;30.760;2023-04-03T05:27:28;76247.81;;;-146.33
37414;BMP280;23279;46.472;30.760;2023-04-03T05:29:54;76249.84;;;-146.33
37414;BMP280;23279;46.472;30.760;2023-04-03T05:32:21;76268.16;;;-146.33
37414;BMP280;23279;46.472;30.760;2023-04-03T05:34:46;76319.00;;;-146.33
37414;BMP280;23279;46.472;30.760;2023-04-03T05:37:12;76284.41;;;-146.33
37414;BMP280;23279;46.472;30.760;2023-04-03T05:39:37;76314.91;;;-146.33
37414;BMP280;23279;46.472;30.760;2023-04-03T05:42:05;76319.00;;;-146.33
37414;BMP280;23279;46.472;30.760;2023-04-03T05:44:31;76296.63;;;-146.33
37414;BMP280;23279;46.472;30.760;2023-04-03T05:46:56;76253.91;;;-146.33
37414;BMP280;23279;46.472;30.760;2023-04-03T05:49:22;76302.72;;;-146.33
37414;BMP280;23279;46.472;30.760;2023-04-03T05:51:47;76335.25;;;-146.33
37414;BMP280;23279;46.472;30.760;2023-04-03T05:54:19;76329.16;;;-146.33
37414;BMP280;23279;46.472;30.760;2023-04-03T05:56:46;76286.44;;;-146.33
37414;BMP280;23279;46.472;30.760;2023-04-03T05:59:11;76278.31;;;-146.33
37414;BMP280;23279;46.472;30.760;2023-04-03T06:01:37;76308.81;;;-146.33
37414;BMP280;23279;46.472;30.760;2023-04-03T06:04:02;76361.69;;;-146.33
37414;BMP280;23279;46.472;30.760;2023-04-03T06:09:14;76371.88;;;-146.33
37414;BMP280;23279;46.472;30.760;2023-04-03T06:11:41;76347.47;;;-146.33
37414;BMP280;23279;46.472;30.760;2023-04-03T06:14:07;76302.72;;;-146.33
37414;BMP280;23279;46.472;30.760;2023-04-03T06:16:33;76302.72;;;-146.33
37414;BMP280;23279;46.472;30.760;2023-04-03T06:18:59;76321.03;;;-146.33
37414;BMP280;23279;46.472;30.760;2023-04-03T06:21:24;76363.72;;;-146.33
37414;BMP280;23279;46.472;30.760;2023-04-03T06:23:50;76306.78;;;-146.33
37414;BMP280;23279;46.472;30.760;2023-04-03T06:26:17;76327.13;;;-146.33
37414;BMP280;23279;46.472;30.760;2023-04-03T06:28:42;76319.00;;;-146.33
37414;BMP280;23279;46.472;30.760;2023-04-03T06:31:08;76302.72;;;-146.33
37414;BMP280;23279;46.472;30.760;2023-04-03T06:33:34;76339.31;;;-146.33
37414;BMP280;23279;46.472;30.760;2023-04-03T06:36:00;76371.88;;;-146.33
37414;BMP280;23279;46.472;30.760;2023-04-03T06:38:28;76363.72;;;-146.33
37414;BMP280;23279;46.472;30.760;2023-04-03T06:40:53;76359.66;;;-146.33
37414;BMP280;23279;46.472;30.760;2023-04-03T06:43:19;76319.00;;;-146.33
37414;BMP280;23279;46.472;30.760;2023-04-03T06:45:45;76302.72;;;-146.33
37414;BMP280;23279;46.472;30.760;2023-04-03T06:48:11;76294.59;;;-146.33
37414;BMP280;23279;46.472;30.760;2023-04-03T06:50:36;76266.13;;;-146.33
37414;BMP280;23279;46.472;30.760;2023-04-03T06:53:02;76272.22;;;-146.33
37414;BMP280;23279;46.472;30.760;2023-04-03T06:55:27;76290.50;;;-146.33
37414;BMP280;23279;46.472;30.760;2023-04-03T06:57:52;76325.09;;;-146.33
37414;BMP280;23279;46.472;30.760;2023-04-03T07:00:18;76310.84;;;-146.33
37414;BMP280;23279;46.472;30.760;2023-04-03T07:02:44;76278.31;;;-146.33
37414;BMP280;23279;46.472;30.760;2023-04-03T07:05:10;76270.19;;;-146.33
37414;BMP280;23279;46.472;30.760;2023-04-03T07:07:36;76306.78;;;-146.33
37414;BMP280;23279;46.472;30.760;2023-04-03T07:10:03;76386.09;;;-146.33
37414;BMP280;23279;46.472;30.760;2023-04-03T07:12:29;76410.50;;;-146.33
37414;BMP280;23279;46.472;30.760;2023-04-03T07:14:54;76455.25;;;-146.33
37414;BMP280;23279;46.472;30.760;2023-04-03T07:17:20;76441.00;;;-146.33
37414;BMP280;23279;46.472;30.760;2023-04-03T07:19:45;76469.50;;;-146.33
37414;BMP280;23279;46.472;30.760;2023-04-03T07:22:11;76481.69;;;-146.33
37414;BMP280;23279;46.472;30.760;2023-04-03T07:24:37;76467.44;;;-146.33
37414;BMP280;23279;46.472;30.760;2023-04-03T07:43:34;76365.75;;;-146.33
37414;BMP280;23279;46.472;30.760;2023-04-03T07:46:00;76461.34;;;-146.33
37414;BMP280;23279;46.472;30.760;2023-04-03T07:48:26;76489.81;;;-146.33
37414;BMP280;23279;46.472;30.760;2023-04-03T07:50:51;76479.66;;;-146.33
37414;BMP280;23279;46.472;30.760;2023-04-03T07:53:18;76477.63;;;-146.33
37414;BMP280;23279;46.472;30.760;2023-04-03T07:55:46;76455.25;;;-146.33
37414;BMP280;23279;46.472;30.760;2023-04-03T07:58:14;76422.72;;;-146.33
37414;BMP280;23279;46.472;30.760;2023-04-03T08:00:40;76384.06;;;-146.33
37414;BMP280;23279;46.472;30.760;2023-04-03T08:03:07;76400.34;;;-146.33
37414;BMP280;23279;46.472;30.760;2023-04-03T08:05:46;76420.69;;;-146.33
37414;BMP280;23279;46.472;30.760;2023-04-03T08:08:14;76441.00;;;-146.33
37414;BMP280;23279;46.472;30.760;2023-04-03T08:10:40;76447.13;;;-146.33
37414;BMP280;23279;46.472;30.760;2023-04-03T08:13:07;76436.94;;;-146.33
37414;BMP280;23279;46.472;30.760;2023-04-03T08:15:33;76400.34;;;-146.33
37414;BMP280;23279;46.472;30.760;2023-04-03T08:17:59;76388.13;;;-146.33
37414;BMP280;23279;46.472;30.760;2023-04-03T08:20:26;76392.19;;;-146.33
37414;BMP280;23279;46.472;30.760;2023-04-03T08:22:51;76386.09;;;-146.33
37414;BMP280;23279;46.472;30.760;2023-04-03T08:25:17;76390.16;;;-146.33
37414;BMP280;23279;46.472;30.760;2023-04-03T08:27:43;76382.03;;;-146.33
37414;BMP280;23279;46.472;30.760;2023-04-03T08:30:09;76408.47;;;-146.33
37414;BMP280;23279;46.472;30.760;2023-04-03T08:32:34;76410.50;;;-146.33
37414;BMP280;23279;46.472;30.760;2023-04-03T08:35:01;76453.22;;;-146.33
37414;BMP280;23279;46.472;30.760;2023-04-03T08:37:27;76467.44;;;-146.33
37414;BMP280;23279;46.472;30.760;2023-04-03T08:39:53;76467.44;;;-146.33
37414;BMP280;23279;46.472;30.760;2023-04-03T08:42:43;76451.19;;;-146.33
37414;BMP280;23279;46.472;30.760;2023-04-03T08:45:17;76453.22;;;-146.33
37414;BMP280;23279;46.472;30.760;2023-04-03T08:47:53;76467.44;;;-146.33
37414;BMP280;23279;46.472;30.760;2023-04-03T08:50:26;76459.31;;;-146.33
37414;BMP280;23279;46.472;30.760;2023-04-03T08:52:57;76477.63;;;-146.33
37414;BMP280;23279;46.472;30.760;2023-04-03T08:55:33;76502.03;;;-146.33
37414;BMP280;23279;46.472;30.760;2023-04-03T08:58:04;76520.34;;;-146.33
37414;BMP280;23279;46.472;30.760;2023-04-03T09:00:37;76518.28;;;-146.33
37414;BMP280;23279;46.472;30.760;2023-04-03T09:03:12;76538.63;;;-146.33
37414;BMP280;23279;46.472;30.760;2023-04-03T09:05:48;76534.56;;;-146.33
37414;BMP280;23279;46.472;30.760;2023-04-03T09:08:21;76530.50;;;-146.33
37414;BMP280;23279;46.472;30.760;2023-04-03T09:10:48;76542.72;;;-146.33
37414;BMP280;23279;46.472;30.760;2023-04-03T09:13:43;76530.50;;;-146.33
37414;BMP280;23279;46.472;30.760;2023-04-03T09:16:48;76546.78;;;-146.33
37414;BMP280;23279;46.472;30.760;2023-04-03T09:21:57;76579.31;;;-146.33
37414;BMP280;23279;46.472;30.760;2023-04-03T09:24:23;76595.59;;;-146.33
37414;BMP280;23279;46.472;30.760;2023-04-03T09:27:09;76603.72;;;-146.33
37414;BMP280;23279;46.472;30.760;2023-04-03T09:29:42;76581.34;;;-146.33
37414;BMP280;23279;46.472;30.760;2023-04-03T09:32:26;76577.28;;;-146.33
37414;BMP280;23279;46.472;30.760;2023-04-03T09:34:53;76595.59;;;-146.33
37414;BMP280;23279;46.472;30.760;2023-04-03T09:37:39;76567.09;;;-146.33
37414;BMP280;23279;46.472;30.760;2023-04-03T09:40:06;76550.84;;;-146.33
37414;BMP280;23279;46.472;30.760;2023-04-03T09:42:53;76573.22;;;-146.33
37414;BMP280;23279;46.472;30.760;2023-04-03T09:50:33;76589.47;;;-146.33
37414;BMP280;23279;46.472;30.760;2023-04-03T09:53:05;76599.66;;;-146.33
37414;BMP280;23279;46.472;30.760;2023-04-03T09:55:32;76630.16;;;-146.33
37414;BMP280;23279;46.472;30.760;2023-04-03T09:58:02;76642.38;;;-146.33
37414;BMP280;23279;46.472;30.760;2023-04-03T10:00:35;76613.88;;;-146.33
37414;BMP280;23279;46.472;30.760;2023-04-03T10:03:02;76632.19;;;-146.33
37414;BMP280;23279;46.472;30.760;2023-04-03T10:10:38;76786.78;;;-146.33
37414;BMP280;23279;46.472;30.760;2023-04-03T10:13:10;76868.13;;;-146.33
37414;BMP280;23279;46.472;30.760;2023-04-03T10:15:41;76886.44;;;-146.33
37414;BMP280;23279;46.472;30.760;2023-04-03T10:18:24;76884.41;;;-146.33
37414;BMP280;23279;46.472;30.760;2023-04-03T10:20:53;76947.47;;;-146.33
37414;BMP280;23279;46.472;30.760;2023-04-03T10:23:40;76967.81;;;-146.33
37414;BMP280;23279;46.472;30.760;2023-04-03T10:57:53;77154.97;;;-146.33
37414;BMP280;23279;46.472;30.760;2023-04-03T11:00:21;77173.28;;;-146.33
37414;BMP280;23279;46.472;30.760;2023-04-03T11:03:01;77148.84;;;-146.33
37414;BMP280;23279;46.472;30.760;2023-04-03T11:05:37;77171.25;;;-146.33
37414;BMP280;23279;46.472;30.760;2023-04-03T11:11:14;77124.44;;;-146.33
37414;BMP280;23279;46.472;30.760;2023-04-03T11:13:48;77132.59;;;-146.33
37414;BMP280;23279;46.472;30.760;2023-04-03T11:16:19;77091.91;;;-146.33
37414;BMP280;23279;46.472;30.760;2023-04-03T11:18:56;77079.69;;;-146.33
37414;BMP280;23279;46.472;30.760;2023-04-03T11:21:31;77067.50;;;-146.33
37414;BMP280;23279;46.472;30.760;2023-04-03T11:24:03;77055.28;;;-146.33
37414;BMP280;23279;46.472;30.760;2023-04-03T11:26:36;77051.22;;;-146.33
37414;BMP280;23279;46.472;30.760;2023-04-03T11:29:09;77030.88;;;-146.33
37414;BMP280;23279;46.472;30.760;2023-04-03T11:34:33;77036.97;;;-146.33
37414;BMP280;23279;46.472;30.760;2023-04-03T11:37:06;77047.16;;;-146.33
37414;BMP280;23279;46.472;30.760;2023-04-03T11:39:38;77089.88;;;-146.33
37414;BMP280;23279;46.472;30.760;2023-04-03T11:42:26;77087.84;;;-146.33
37414;BMP280;23279;46.472;30.760;2023-04-03T11:53:00;77010.53;;;-146.33
37414;BMP280;23279;46.472;30.760;2023-04-03T12:21:03;77100.03;;;-146.33
37414;BMP280;23279;46.472;30.760;2023-04-03T12:23:34;77108.19;;;-146.33
37414;BMP280;23279;46.472;30.760;2023-04-03T12:26:24;77106.13;;;-146.33
37414;BMP280;23279;46.472;30.760;2023-04-03T12:28:53;77106.13;;;-146.33
37414;BMP280;23279;46.472;30.760;2023-04-03T12:31:19;77120.38;;;-146.33
37414;BMP280;23279;46.472;30.760;2023-04-03T12:34:04;77100.03;;;-146.33
37414;BMP280;23279;46.472;30.760;2023-04-03T12:37:09;77075.63;;;-146.33
37414;BMP280;23279;46.472;30.760;2023-04-03T12:45:22;76998.31;;;-146.33
37414;BMP280;23279;46.472;30.760;2023-04-03T12:47:51;76980.03;;;-146.33
37414;BMP280;23279;46.472;30.760;2023-04-03T12:50:36;76941.38;;;-146.33
37414;BMP280;23279;46.472;30.760;2023-04-03T12:55:39;76912.88;;;-146.33
37414;BMP280;23279;46.472;30.760;2023-04-03T12:58:25;76941.38;;;-146.33
37414;BMP280;23279;46.472;30.760;2023-04-03T13:01:25;76904.75;;;-146.33
37414;BMP280;23279;46.472;30.760;2023-04-03T13:03:59;76925.09;;;-146.33
37414;BMP280;23279;46.472;30.760;2023-04-03T13:06:34;76914.94;;;-146.33
37414;BMP280;23279;46.472;30.760;2023-04-03T13:09:03;76921.03;;;-146.33
37414;BMP280;23279;46.472;30.760;2023-04-03T13:11:40;76919.00;;;-146.33
37414;BMP280;23279;46.472;30.760;2023-04-03T13:14:19;76929.16;;;-146.33
37414;BMP280;23279;46.472;30.760;2023-04-03T13:16:58;76927.13;;;-146.33
37414;BMP280;23279;46.472;30.760;2023-04-03T13:19:25;76894.59;;;-146.33
37414;BMP280;23279;46.472;30.760;2023-04-03T13:22:02;76896.63;;;-146.33
37414;BMP280;23279;46.472;30.760;2023-04-03T13:24:29;76904.75;;;-146.33
37414;BMP280;23279;46.472;30.760;2023-04-03T13:26:56;76906.78;;;-146.33
37414;BMP280;23279;46.472;30.760;2023-04-03T13:29:25;76884.41;;;-146.33
37414;BMP280;23279;46.472;30.760;2023-04-03T13:31:53;76929.16;;;-146.33
37414;BMP280;23279;46.472;30.760;2023-04-03T13:34:20;76937.31;;;-146.33
37414;BMP280;23279;46.472;30.760;2023-04-03T13:41:47;76984.09;;;-146.33
37414;BMP280;23279;46.472;30.760;2023-04-03T13:46:53;77047.16;;;-146.33
37414;BMP280;23279;46.472;30.760;2023-04-03T13:49:46;77047.16;;;-146.33
37414;BMP280;23279;46.472;30.760;2023-04-03T13:52:27;77057.31;;;-146.33
37414;BMP280;23279;46.472;30.760;2023-04-03T13:54:59;77083.75;;;-146.33
37414;BMP280;23279;46.472;30.760;2023-04-03T13:57:26;77073.59;;;-146.33
37414;BMP280;23279;46.472;30.760;2023-04-03T13:59:54;77059.34;;;-146.33
37414;BMP280;23279;46.472;30.760;2023-04-03T14:02:30;77047.16;;;-146.33
37414;BMP280;23279;46.472;30.760;2023-04-03T14:04:58;77051.22;;;-146.33
37414;BMP280;23279;46.472;30.760;2023-04-03T14:07:27;77043.06;;;-146.33
37414;BMP280;23279;46.472;30.760;2023-04-03T14:09:55;77077.66;;;-146.33
37414;BMP280;23279;46.472;30.760;2023-04-03T14:14:52;77083.75;;;-146.33
37414;BMP280;23279;46.472;30.760;2023-04-03T14:17:20;77079.69;;;-146.33
37414;BMP280;23279;46.472;30.760;2023-04-03T14:19:47;77116.31;;;-146.33
37414;BMP280;23279;46.472;30.760;2023-04-03T14:22:17;77095.97;;;-146.33
37414;BMP280;23279;46.472;30.760;2023-04-03T14:24:44;77100.03;;;-146.33
37414;BMP280;23279;46.472;30.760;2023-04-03T14:27:39;77112.25;;;-146.33
37414;BMP280;23279;46.472;30.760;2023-04-03T14:30:12;77077.66;;;-146.33
37414;BMP280;23279;46.472;30.760;2023-04-03T14:32:38;77079.69;;;-146.33
37414;BMP280;23279;46.472;30.760;2023-04-03T14:35:04;77061.38;;;-146.33
37414;BMP280;23279;46.472;30.760;2023-04-03T14:37:31;77067.50;;;-146.33
37414;BMP280;23279;46.472;30.760;2023-04-03T14:39:58;77036.97;;;-146.33
37414;BMP280;23279;46.472;30.760;2023-04-03T14:42:33;77034.94;;;-146.33
37414;BMP280;23279;46.472;30.760;2023-04-03T14:45:00;77022.75;;;-146.33
37414;BMP280;23279;46.472;30.760;2023-04-03T14:47:29;77024.78;;;-146.33
37414;BMP280;23279;46.472;30.760;2023-04-03T14:49:55;77024.78;;;-146.33
37414;BMP280;23279;46.472;30.760;2023-04-03T14:52:22;77008.50;;;-146.33
37414;BMP280;23279;46.472;30.760;2023-04-03T14:54:48;77004.44;;;-146.33
37414;BMP280;23279;46.472;30.760;2023-04-03T14:57:15;77022.75;;;-146.33
37414;BMP280;23279;46.472;30.760;2023-04-03T14:59:41;77039.00;;;-146.33
37414;BMP280;23279;46.472;30.760;2023-04-03T15:04:53;77087.84;;;-146.33
37414;BMP280;23279;46.472;30.760;2023-04-03T15:07:19;77093.94;;;-146.33
37414;BMP280;23279;46.472;30.760;2023-04-03T15:09:45;77126.47;;;-146.33
37414;BMP280;23279;46.472;30.760;2023-04-03T15:12:10;77126.47;;;-146.33
37414;BMP280;23279;46.472;30.760;2023-04-03T15:14:36;77136.66;;;-146.33
37414;BMP280;23279;46.472;30.760;2023-04-03T15:17:02;77128.50;;;-146.33
37414;BMP280;23279;46.472;30.760;2023-04-03T15:19:29;77140.72;;;-146.33
37414;BMP280;23279;46.472;30.760;2023-04-03T15:21:55;77114.28;;;-146.33
37414;BMP280;23279;46.472;30.760;2023-04-03T15:24:20;77108.19;;;-146.33
37414;BMP280;23279;46.472;30.760;2023-04-03T15:26:46;77140.72;;;-146.33
37414;BMP280;23279;46.472;30.760;2023-04-03T15:29:11;77144.78;;;-146.33
37414;BMP280;23279;46.472;30.760;2023-04-03T15:31:37;77171.25;;;-146.33
37414;BMP280;23279;46.472;30.760;2023-04-03T15:34:02;77177.34;;;-146.33
37414;BMP280;23279;46.472;30.760;2023-04-03T15:36:28;77171.25;;;-146.33
37414;BMP280;23279;46.472;30.760;2023-04-03T15:38:53;77173.28;;;-146.33
37414;BMP280;23279;46.472;30.760;2023-04-03T15:41:19;77181.41;;;-146.33
37414;BMP280;23279;46.472;30.760;2023-04-03T15:43:44;77203.78;;;-146.33
37414;BMP280;23279;46.472;30.760;2023-04-03T15:46:10;77207.84;;;-146.33
37414;BMP280;23279;46.472;30.760;2023-04-03T15:48:35;77218.03;;;-146.33
37414;BMP280;23279;46.472;30.760;2023-04-03T15:51:01;77244.47;;;-146.33
37414;BMP280;23279;46.472;30.760;2023-04-03T15:53:26;77260.75;;;-146.33
37414;BMP280;23279;46.472;30.760;2023-04-03T15:55:52;77287.19;;;-146.33